x

La Perouse Bank (46206) Wave Buoy

8:00pm - Sat 18th Apr 2015 All times are PDT. -7 hours from GMT.

  • Sig Wave height 5.2ft
  • Peak Period 10s
  • Wind
    16mph, 18mph gusts
  • Sea Temp 52°f
  • 空気 Temp 52°f
  • Sea Pressure 1026.3mb
  • La Perouse Bank
  • La Perouse Bank

More Historic Weather Station data

Upgrade to MSW Pro to gain access to the past 30 days of data for over 8000 Wavebouys and Weather Stations around the globe.

Join Pro

Comparision Forecast

View Surf forecast
   
Sat 04/18 8:00pm 5ft 10s 16 18 mph 1026.3mb 52f 52f
7:00pm 6ft 12s 13 16 mph 1026.7mb 52f 52f
6:00pm 6ft 11s 13 18 mph 1027.2mb 52f 52f
5:00pm 6ft 12s 13 16 mph 1027.8mb 53f 52f
4:00pm 6ft 12s 11 13 mph 1028.1mb 53f 52f
3:00pm 6ft 10s 7 9 mph 1028.7mb 53f 52f
2:00pm 6ft 11s 4
mph
1029mb 53f 52f
1:00pm 6ft 12s 9 11 mph 1028.8mb 53f 51f
12:00pm 6ft 12s 7 9 mph 1029.5mb 53f 51f
11:00am 6.5ft 12s 7 9 mph 1029.7mb 52f 51f
10:00am 7ft 12s 4 7 mph 1029.8mb 52f 51f
9:00am 7ft 10s 4 7 mph 1029.7mb 52f 51f
8:00am 7.5ft 14s 7 9 mph 1029.4mb 51f 51f
7:00am 8ft 12s 4 7 mph 1029.2mb 51f 51f
6:00am 8ft 12s 7 11 mph 1028.5mb 51f 51f
5:00am 9ft 12s 16 18 mph 1028.1mb 51f 51f
4:00am 8.5ft 13s 16 22 mph 1027.9mb 51f 51f
3:00am 9ft 11s 13 16 mph 1027.5mb 51f 51f
2:00am 9ft 12s 16 18 mph 1027.5mb 51f 51f
1:00am 10ft 8s 18 22 mph 1027.7mb 51f 52f
12:00am 10ft 13s 20 25 mph 1027.6mb 51f 52f
Fri 04/17 11:00pm 10ft 8s 22 27 mph 1027.1mb 51f 52f
10:00pm 10.5ft 10s 25 31 mph 1027mb 51f 52f
9:00pm 10.5ft 14s 25 29 mph 1026.8mb 51f 52f
8:00pm 10.5ft 13s 25 29 mph 1026.2mb 52f 51f
7:00pm 10ft 12s 25 31 mph 1026.1mb 52f 51f
6:00pm 11ft 15s 25 29 mph 1026.5mb 52f 51f
5:00pm 11ft 14s 27 31 mph 1026.7mb 51f 51f
4:00pm 11ft 12s 27 34 mph 1026.9mb 51f 51f
3:00pm 10.5ft 14s 27 34 mph 1027mb 51f 51f
2:00pm 9.5ft 14s 25 31 mph 1027.5mb 51f 51f
1:00pm 9ft 14s 22 27 mph 1027.4mb 52f 51f
12:00pm 9ft 12s 20 25 mph 1027.5mb 52f 51f
11:00am 9ft 15s 16 20 mph 1027.1mb 51f 51f
10:00am 8.5ft 13s 16 20 mph 1026.7mb 51f 50f
9:00am 9ft 12s 4 9 mph 1026.4mb 51f 51f
8:00am 9ft 14s 2 4 mph 1026.1mb 51f 51f
7:00am 8.5ft 15s 2 4 mph 1025.7mb 51f 51f
6:00am 9.5ft 16s 4 7 mph 1025.4mb 51f 51f
5:00am 9.5ft 14s 4 9 mph 1025.5mb 51f 51f
4:00am 10.5ft 14s 7 9 mph 1025.6mb 52f 51f
3:00am 11ft 12s 9 13 mph 1025.7mb 51f 51f
2:00am 9.5ft 14s 13 18 mph 1025.9mb 51f 51f
1:00am 11ft 15s 9 11 mph 1025.3mb 51f 51f
12:00am 11ft 14s 9 13 mph 1025.2mb 52f 51f
Thu 04/16 11:00pm 10.5ft 15s 7 11 mph 1025.3mb 51f 51f
10:00pm 11.5ft 13s 9 13 mph 1025.4mb 51f 51f
9:00pm 12ft 14s 11 16 mph 1025.4mb 51f 51f
8:00pm 11.5ft 12s 11 16 mph 1025.5mb 51f 51f
7:00pm 14ft 14s 11 16 mph 1025.8mb 51f 52f
6:00pm 12.5ft 15s 9 13 mph 1026.3mb 52f 52f
5:00pm 11.5ft 14s 7 9 mph 1027.1mb 52f 52f
4:00pm 11ft 17s 4 7 mph 1027.9mb 52f 53f
3:00pm 12ft 16s 2 7 mph 1028.7mb 52f 52f
2:00pm 11ft 18s 2 7 mph 1029.1mb 52f 53f
1:00pm 11ft 16s 4 7 mph 1029.3mb 52f 52f
12:00pm 11.5ft 17s 4 7 mph 1029.7mb 51f 51f
11:00am 11ft 17s 9 13 mph 1029.7mb 51f 51f
10:00am 10.5ft 14s 9 13 mph 1029.9mb 51f 50f
9:00am 10.5ft 18s 9 11 mph 1030mb 51f 51f
8:00am 11ft 11s 9 13 mph 1030mb 51f 51f
7:00am 10.5ft 12s 9 11 mph 1030mb 51f 51f
6:00am 10ft 12s 9 13 mph 1030.2mb 51f 51f
5:00am 9ft 12s 9 11 mph 1030.5mb 51f 51f
4:00am 9ft 12s 9 11 mph 1030.6mb 51f 51f
3:00am 9ft 12s 9 11 mph 1030.8mb 51f 51f
2:00am 9ft 11s 9 11 mph 1031.2mb 51f 51f
1:00am 8.5ft 12s 9 11 mph 1031.7mb 51f 51f
12:00am 8ft 12s 9 13 mph 1031.7mb 51f 51f
Wed 04/15 11:00pm 8ft 13s 9 13 mph 1031.8mb 51f 51f
10:00pm 8.5ft 13s 9 11 mph 1032.2mb 51f 51f
9:00pm 8.5ft 12s 9 11 mph 1032.2mb 51f 51f
8:00pm 8ft 11s 9 13 mph 1032mb 51f 50f
7:00pm 7ft 12s 11 13 mph 1032.2mb 51f 50f
6:00pm 7.5ft 11s 13 16 mph 1032.7mb 51f 50f
5:00pm 7ft 11s 13 16 mph 1033.2mb 51f 50f
4:00pm 7ft 11s 13 16 mph 1033.7mb 51f 49f
3:00pm 6ft 10s 16 18 mph 1033.9mb 51f 50f
2:00pm 6ft 11s 13 18 mph 1033.9mb 51f 50f
1:00pm 6ft 11s 13 16 mph 1034.1mb 51f 48f
12:00pm 6ft 11s 16 18 mph 1034mb 51f 49f
11:00am 6ft 12s 16 18 mph 1033.7mb 51f 49f
10:00am 6.5ft 11s 13 18 mph 1033.5mb 51f 49f
9:00am 6ft 11s 13 16 mph 1033.4mb 51f 49f
8:00am 6ft 11s 9 11 mph 1033.2mb 51f 49f
7:00am 7ft 12s 9 11 mph 1032.9mb 51f 49f
6:00am 8ft 11s 4 7 mph 1032.6mb 51f 48f
5:00am 8.5ft 11s 2 4 mph 1032.4mb 51f 48f